Nathalie — OJLP — position and weather

sailwx.info

Track history (hours):
 
Tides and Currents Weather Stations Pressure Air Temp Water Temp Dewpoint Dewpoint Depression Visibility Wind Speed Wind Dir Waves Ship Positions

Nathalie

Last reported at 2015-May-24 01:10 UTC. Time now 2015-May-25 17:37 UTC.
Position N 54°36' E 011°01'.

Length 64 m; draft 2.8 m.

Type: Cargo ship. MMSI: 230987660.

Date/timePositionNaut miles runAvg speedWind from/ knotsBaromVisibWave heightAir tempDewpointWater temp
2015-May-24 01:10N 54°36' E 011°01'6 9.0
2015-May-24 00:33N 54°36' E 011°10'8 8.1
2015-May-23 23:33N 54°33' E 011°23'8 8.3
2015-May-23 22:33N 54°31' E 011°37'9 8.9
2015-May-23 21:34N 54°30' E 011°52'8 8.5
2015-May-23 20:33N 54°31' E 012°06'18 8.8
2015-May-23 18:32N 54°43' E 012°31'9 8.7
2015-May-23 17:27N 54°48' E 012°44'184 7.9
2015-May-22 18:05N 56°58' E 016°37'4 8.0
2015-May-22 17:33N 57°02' E 016°41'8 8.0
2015-May-22 16:34N 57°09' E 016°44'8 8.5
2015-May-22 15:33N 57°18' E 016°48'9 9.2
2015-May-22 14:33N 57°26' E 016°52'8 8.4
2015-May-22 13:34N 57°35' E 016°56'  
2015-May-18 23:28N 59°22' E 018°19'9 4.7
2015-May-18 21:30N 59°18' E 018°02'  
2015-May-16 12:33N 57°36' E 017°01'8 8.4
2015-May-16 11:33N 57°28' E 016°56'8 8.4
2015-May-16 10:33N 57°20' E 016°52'8 8.4
2015-May-16 09:33N 57°12' E 016°47'8 8.5
2015-May-16 08:33N 57°04' E 016°43'9 8.3
2015-May-16 07:26N 56°55' E 016°36'80 8.0
2015-May-15 21:23N 55°45' E 015°25'7 8.0
2015-May-15 20:33N 55°41' E 015°16'8 7.8
2015-May-15 19:33N 55°36' E 015°06'8 8.1
2015-May-15 18:33N 55°30' E 014°55'8 8.2
2015-May-15 17:33N 55°25' E 014°44'8 8.0
2015-May-15 16:33N 55°19' E 014°35'7 7.2
2015-May-15 15:33N 55°13' E 014°28'8 7.5
2015-May-15 14:33N 55°07' E 014°37'3 2.6
2015-May-15 13:32N 55°06' E 014°41'0 0.0
2015-May-15 12:32N 55°06' E 014°41'0 0.0
2015-May-15 11:32N 55°06' E 014°41'0 0.0
2015-May-15 10:32N 55°06' E 014°41'0 0.1
2015-May-15 09:32N 55°06' E 014°41'0 0.0
2015-May-15 08:32N 55°06' E 014°41'0 0.0
2015-May-15 07:32N 55°06' E 014°41'0 0.0
2015-May-15 06:32N 55°06' E 014°41'0 0.0
2015-May-15 05:32N 55°06' E 014°41'0 0.0
2015-May-15 04:32N 55°06' E 014°41'0 0.0
2015-May-15 03:32N 55°06' E 014°41'0 0.0
2015-May-15 02:32N 55°06' E 014°41'0 0.0
2015-May-15 01:32N 55°06' E 014°41'0 0.0
2015-May-15 00:29N 55°06' E 014°41'0 0.0
2015-May-14 23:32N 55°06' E 014°41'0 0.0
2015-May-14 22:32N 55°06' E 014°41'0 0.0
2015-May-14 21:32N 55°06' E 014°41'0 0.0
2015-May-14 20:32N 55°06' E 014°41'0 0.0
2015-May-14 19:32N 55°06' E 014°41'0 0.0
2015-May-14 18:32N 55°06' E 014°41'0 0.0
2015-May-14 17:32N 55°06' E 014°41'0 0.0
2015-May-14 16:32N 55°06' E 014°41'0 0.0
2015-May-14 15:32N 55°06' E 014°41'0 0.0
2015-May-14 14:31N 55°06' E 014°41'0 0.0
2015-May-14 13:31N 55°06' E 014°41'0 0.0
2015-May-14 12:31N 55°06' E 014°41'0 0.0
2015-May-14 11:31N 55°06' E 014°41'0 0.0
2015-May-14 10:31N 55°06' E 014°41'0 0.0
2015-May-14 09:31N 55°06' E 014°41'0 0.0
2015-May-14 08:31N 55°06' E 014°41'0 0.0
2015-May-14 07:31N 55°06' E 014°41'0 0.0
2015-May-14 06:31N 55°06' E 014°41'4 4.5
2015-May-14 05:33N 55°07' E 014°34'9 8.9
2015-May-14 04:31N 55°11' E 014°20'8 7.0
2015-May-14 03:23N 55°19' E 014°26'16 8.3
2015-May-14 01:27N 55°31' E 014°44'  
Track history (hours):
 
Tides and Currents Weather Stations Pressure Air Temp Water Temp Dewpoint Dewpoint Depression Visibility Wind Speed Wind Dir Waves Ship Positions

Nathalie

Last reported at 2015-May-24 01:10 UTC. Time now 2015-May-25 17:37 UTC.
Position N 54°36' E 011°01'.

Length 64 m; draft 2.8 m.

Type: Cargo ship. MMSI: 230987660.

Date/timePositionNaut miles runAvg speedWind from/ knotsBaromVisibWave heightAir tempDewpointWater temp
2015-May-24 01:10N 54°36' E 011°01'6 9.0
2015-May-24 00:33N 54°36' E 011°10'8 8.1
2015-May-23 23:33N 54°33' E 011°23'8 8.3
2015-May-23 22:33N 54°31' E 011°37'9 8.9
2015-May-23 21:34N 54°30' E 011°52'8 8.5
2015-May-23 20:33N 54°31' E 012°06'18 8.8
2015-May-23 18:32N 54°43' E 012°31'9 8.7
2015-May-23 17:27N 54°48' E 012°44'184 7.9
2015-May-22 18:05N 56°58' E 016°37'4 8.0
2015-May-22 17:33N 57°02' E 016°41'8 8.0
2015-May-22 16:34N 57°09' E 016°44'8 8.5
2015-May-22 15:33N 57°18' E 016°48'9 9.2
2015-May-22 14:33N 57°26' E 016°52'8 8.4
2015-May-22 13:34N 57°35' E 016°56'  
2015-May-18 23:28N 59°22' E 018°19'9 4.7
2015-May-18 21:30N 59°18' E 018°02'  
2015-May-16 12:33N 57°36' E 017°01'8 8.4
2015-May-16 11:33N 57°28' E 016°56'8 8.4
2015-May-16 10:33N 57°20' E 016°52'8 8.4
2015-May-16 09:33N 57°12' E 016°47'8 8.5
2015-May-16 08:33N 57°04' E 016°43'9 8.3
2015-May-16 07:26N 56°55' E 016°36'80 8.0
2015-May-15 21:23N 55°45' E 015°25'7 8.0
2015-May-15 20:33N 55°41' E 015°16'8 7.8
2015-May-15 19:33N 55°36' E 015°06'8 8.1
2015-May-15 18:33N 55°30' E 014°55'8 8.2
2015-May-15 17:33N 55°25' E 014°44'8 8.0
2015-May-15 16:33N 55°19' E 014°35'7 7.2
2015-May-15 15:33N 55°13' E 014°28'8 7.5
2015-May-15 14:33N 55°07' E 014°37'3 2.6
2015-May-15 13:32N 55°06' E 014°41'0 0.0
2015-May-15 12:32N 55°06' E 014°41'0 0.0
2015-May-15 11:32N 55°06' E 014°41'0 0.0
2015-May-15 10:32N 55°06' E 014°41'0 0.1
2015-May-15 09:32N 55°06' E 014°41'0 0.0
2015-May-15 08:32N 55°06' E 014°41'0 0.0
2015-May-15 07:32N 55°06' E 014°41'0 0.0
2015-May-15 06:32N 55°06' E 014°41'0 0.0
2015-May-15 05:32N 55°06' E 014°41'0 0.0
2015-May-15 04:32N 55°06' E 014°41'0 0.0
2015-May-15 03:32N 55°06' E 014°41'0 0.0
2015-May-15 02:32N 55°06' E 014°41'0 0.0
2015-May-15 01:32N 55°06' E 014°41'0 0.0
2015-May-15 00:29N 55°06' E 014°41'0 0.0
2015-May-14 23:32N 55°06' E 014°41'0 0.0
2015-May-14 22:32N 55°06' E 014°41'0 0.0
2015-May-14 21:32N 55°06' E 014°41'0 0.0
2015-May-14 20:32N 55°06' E 014°41'0 0.0
2015-May-14 19:32N 55°06' E 014°41'0 0.0
2015-May-14 18:32N 55°06' E 014°41'0 0.0
2015-May-14 17:32N 55°06' E 014°41'0 0.0
2015-May-14 16:32N 55°06' E 014°41'0 0.0
2015-May-14 15:32N 55°06' E 014°41'0 0.0
2015-May-14 14:31N 55°06' E 014°41'0 0.0
2015-May-14 13:31N 55°06' E 014°41'0 0.0
2015-May-14 12:31N 55°06' E 014°41'0 0.0
2015-May-14 11:31N 55°06' E 014°41'0 0.0
2015-May-14 10:31N 55°06' E 014°41'0 0.0
2015-May-14 09:31N 55°06' E 014°41'0 0.0
2015-May-14 08:31N 55°06' E 014°41'0 0.0
2015-May-14 07:31N 55°06' E 014°41'0 0.0
2015-May-14 06:31N 55°06' E 014°41'4 4.5
2015-May-14 05:33N 55°07' E 014°34'9 8.9
2015-May-14 04:31N 55°11' E 014°20'8 7.0
2015-May-14 03:23N 55°19' E 014°26'16 8.3
2015-May-14 01:27N 55°31' E 014°44'  

Dump ship's entire track history